createdAt,value
2023-02-27T00:00:23.033Z,1.97
2023-02-27T00:02:51.485Z,1.53
2023-02-27T00:05:19.633Z,1.70
2023-02-27T00:07:46.533Z,1.50
2023-02-27T00:10:14.331Z,1.60
2023-02-27T00:12:41.687Z,1.90
2023-02-27T00:15:15.423Z,1.53
2023-02-27T00:17:43.045Z,1.30
2023-02-27T00:20:12.523Z,1.43
2023-02-27T00:22:41.062Z,1.60
2023-02-27T00:25:08.787Z,1.60
2023-02-27T00:27:36.933Z,1.50
2023-02-27T00:30:05.623Z,1.50
2023-02-27T00:32:32.616Z,1.43
2023-02-27T00:34:59.389Z,1.50
2023-02-27T00:37:29.022Z,1.33
2023-02-27T00:39:55.636Z,1.50
2023-02-27T00:42:22.342Z,1.60
2023-02-27T00:44:49.039Z,1.70
2023-02-27T00:47:15.803Z,1.30
2023-02-27T00:49:42.415Z,1.40
2023-02-27T00:52:09.829Z,1.30
2023-02-27T00:54:36.475Z,1.60
2023-02-27T00:57:03.263Z,1.27
2023-02-27T00:59:29.971Z,1.37
2023-02-27T01:01:56.648Z,1.30
2023-02-27T01:04:23.283Z,1.70
2023-02-27T01:06:49.952Z,1.30
2023-02-27T01:09:16.650Z,1.60
2023-02-27T01:11:43.293Z,1.47
2023-02-27T01:14:09.917Z,1.40
2023-02-27T01:16:36.692Z,1.60
2023-02-27T01:19:03.519Z,1.47
2023-02-27T01:21:30.472Z,1.20
2023-02-27T01:23:57.137Z,1.50
2023-02-27T01:26:23.781Z,1.33
2023-02-27T01:28:50.383Z,1.63
2023-02-27T01:31:17.085Z,1.20
2023-02-27T01:33:43.736Z,2.07
2023-02-27T01:36:10.812Z,1.30
2023-02-27T01:38:37.570Z,1.43
2023-02-27T01:41:06.161Z,1.40
2023-02-27T01:43:33.670Z,1.47
2023-02-27T01:46:01.091Z,1.40
2023-02-27T01:48:33.298Z,1.43
2023-02-27T01:51:10.254Z,1.20
2023-02-27T01:53:39.014Z,1.37
2023-02-27T01:56:24.819Z,1.53
2023-02-27T01:58:56.168Z,1.60
2023-02-27T02:01:24.355Z,1.63
2023-02-27T02:04:09.668Z,1.40
2023-02-27T02:06:39.750Z,1.40
2023-02-27T02:09:07.191Z,1.50
2023-02-27T02:11:33.889Z,1.60
2023-02-27T02:14:02.707Z,1.80
2023-02-27T02:16:59.349Z,1.70
2023-02-27T02:20:10.981Z,1.63
2023-02-27T02:22:49.212Z,1.30
2023-02-27T02:25:53.604Z,1.50
2023-02-27T02:28:39.746Z,1.10
2023-02-27T02:31:41.693Z,1.37
2023-02-27T02:34:31.158Z,1.87
2023-02-27T02:37:25.827Z,1.47
2023-02-27T02:40:10.522Z,1.50
2023-02-27T02:42:56.523Z,1.30
2023-02-27T02:45:36.779Z,1.60
2023-02-27T02:48:22.360Z,1.40
2023-02-27T02:50:58.023Z,1.70
2023-02-27T02:53:36.585Z,1.53
2023-02-27T02:56:19.078Z,1.23
2023-02-27T02:59:04.379Z,1.80
2023-02-27T03:01:39.392Z,1.87
2023-02-27T03:04:15.377Z,1.50
2023-02-27T03:06:50.057Z,1.40
2023-02-27T03:09:31.370Z,1.70
2023-02-27T03:11:59.611Z,1.43
2023-02-27T03:14:33.612Z,1.40
2023-02-27T03:17:06.383Z,1.30
2023-02-27T03:19:59.659Z,1.10
2023-02-27T03:22:34.212Z,1.47
2023-02-27T03:25:04.283Z,1.43
2023-02-27T03:27:38.413Z,1.40
2023-02-27T03:30:17.973Z,1.20
2023-02-27T03:33:12.554Z,1.30
2023-02-27T03:35:39.105Z,1.60
2023-02-27T03:38:24.962Z,1.70
2023-02-27T03:41:18.015Z,1.40
2023-02-27T03:44:06.957Z,1.50
2023-02-27T03:46:35.014Z,1.40
2023-02-27T03:49:01.842Z,1.70
2023-02-27T03:51:29.072Z,1.50
2023-02-27T03:54:08.188Z,1.50
2023-02-27T03:56:57.789Z,1.43
2023-02-27T03:59:25.500Z,1.60
2023-02-27T04:01:53.502Z,1.40
2023-02-27T04:04:20.446Z,1.33
2023-02-27T04:07:14.253Z,1.60
2023-02-27T04:10:02.169Z,1.23
2023-02-27T04:12:46.806Z,1.60
2023-02-27T04:15:24.824Z,1.40
2023-02-27T04:18:15.555Z,1.60
2023-02-27T04:20:43.539Z,1.40
2023-02-27T04:23:48.430Z,1.80
2023-02-27T04:26:26.308Z,1.63
2023-02-27T04:29:03.878Z,1.47
2023-02-27T04:31:48.063Z,1.30
2023-02-27T04:34:34.173Z,1.47
2023-02-27T04:37:12.610Z,1.50
2023-02-27T04:39:51.841Z,1.83
2023-02-27T04:42:24.031Z,1.50
2023-02-27T04:44:54.303Z,1.40
2023-02-27T04:47:23.826Z,1.30
2023-02-27T04:49:57.026Z,1.57
2023-02-27T04:52:36.766Z,1.53
2023-02-27T04:55:12.853Z,1.60
2023-02-27T04:57:48.141Z,1.83
2023-02-27T05:00:16.546Z,1.43
2023-02-27T05:02:50.276Z,1.43
2023-02-27T05:05:22.317Z,1.60
2023-02-27T05:07:56.589Z,1.70
2023-02-27T05:10:43.255Z,1.60
2023-02-27T05:13:19.121Z,1.80
2023-02-27T05:16:03.129Z,1.73
2023-02-27T05:18:30.090Z,1.90
2023-02-27T05:21:22.096Z,1.90
2023-02-27T05:24:12.066Z,1.70
2023-02-27T05:27:17.680Z,1.60
2023-02-27T05:29:52.080Z,1.97
2023-02-27T05:32:22.532Z,1.50
2023-02-27T05:35:08.621Z,1.50
2023-02-27T05:37:44.777Z,1.80
2023-02-27T05:40:16.314Z,1.50
2023-02-27T05:42:55.062Z,1.90
2023-02-27T05:45:25.410Z,1.80
2023-02-27T05:48:04.071Z,2.13
2023-02-27T05:50:33.891Z,1.93
2023-02-27T05:53:04.369Z,1.93
2023-02-27T05:55:53.502Z,2.03
2023-02-27T05:58:28.557Z,1.70
2023-02-27T06:00:59.265Z,1.80
2023-02-27T06:03:28.361Z,1.90
2023-02-27T06:05:58.042Z,1.83
2023-02-27T06:08:26.510Z,2.23
2023-02-27T06:10:55.192Z,2.10
2023-02-27T06:13:22.594Z,1.90
2023-02-27T06:15:49.948Z,1.60
2023-02-27T06:18:17.951Z,1.93
2023-02-27T06:20:48.158Z,2.37
2023-02-27T06:23:14.892Z,2.23
2023-02-27T06:25:42.231Z,2.10
2023-02-27T06:28:10.129Z,2.30
2023-02-27T06:30:37.106Z,2.10
2023-02-27T06:33:07.484Z,2.00
2023-02-27T06:35:34.488Z,2.20
2023-02-27T06:38:03.244Z,1.90
2023-02-27T06:40:29.881Z,2.20
2023-02-27T06:42:56.578Z,2.40
2023-02-27T06:45:24.294Z,2.40
2023-02-27T06:47:51.052Z,2.20
2023-02-27T06:50:17.847Z,2.07
2023-02-27T06:52:47.292Z,2.30
2023-02-27T06:55:19.828Z,2.13
2023-02-27T06:57:49.781Z,2.30
2023-02-27T07:00:17.160Z,2.50
2023-02-27T07:02:43.999Z,2.50
2023-02-27T07:05:13.789Z,2.30
2023-02-27T07:07:40.762Z,2.40
2023-02-27T07:10:11.591Z,2.50
2023-02-27T07:12:39.665Z,2.43
2023-02-27T07:15:07.677Z,2.47
2023-02-27T07:17:34.402Z,2.40
2023-02-27T07:20:01.036Z,2.50
2023-02-27T07:22:27.752Z,3.00
2023-02-27T07:24:54.467Z,2.97
2023-02-27T07:27:21.113Z,2.77
2023-02-27T07:29:47.836Z,2.70
2023-02-27T07:32:14.505Z,2.70
2023-02-27T07:34:41.196Z,2.77
2023-02-27T07:37:08.105Z,2.60
2023-02-27T07:39:34.860Z,2.70
2023-02-27T07:42:01.487Z,2.80
2023-02-27T07:44:28.095Z,2.60
2023-02-27T07:46:54.786Z,2.70
2023-02-27T07:49:21.541Z,2.43
2023-02-27T07:51:48.287Z,2.47
2023-02-27T07:54:14.948Z,2.57
2023-02-27T07:56:41.843Z,2.73
2023-02-27T07:59:08.593Z,2.70
2023-02-27T08:01:35.241Z,2.13
2023-02-27T08:04:01.915Z,2.20
2023-02-27T08:06:29.288Z,2.23
2023-02-27T08:08:56.105Z,2.47
2023-02-27T08:11:22.808Z,1.90
2023-02-27T08:14:05.428Z,2.30
2023-02-27T08:16:32.664Z,2.10
2023-02-27T08:19:00.458Z,2.50
2023-02-27T08:21:29.290Z,1.80
2023-02-27T08:23:56.239Z,2.43
2023-02-27T08:26:23.384Z,2.50
2023-02-27T08:28:50.024Z,1.97
2023-02-27T08:31:16.666Z,1.97
2023-02-27T08:33:43.304Z,1.90
2023-02-27T08:36:10.113Z,2.00
2023-02-27T08:38:36.843Z,1.70
2023-02-27T08:41:04.231Z,1.80
2023-02-27T08:43:30.876Z,1.80
2023-02-27T08:45:57.556Z,1.87
2023-02-27T08:48:24.836Z,1.80
2023-02-27T08:50:51.968Z,1.87
2023-02-27T08:53:18.691Z,2.10
2023-02-27T08:55:50.969Z,1.53
2023-02-27T08:58:18.354Z,1.83
2023-02-27T09:00:45.647Z,1.67
2023-02-27T09:03:12.441Z,1.53
2023-02-27T09:05:39.320Z,1.60
2023-02-27T09:08:07.065Z,1.27
2023-02-27T09:10:34.305Z,1.77
2023-02-27T09:13:01.504Z,1.73
2023-02-27T09:15:28.472Z,1.60
2023-02-27T09:18:02.810Z,1.47
2023-02-27T09:20:31.572Z,1.67
2023-02-27T09:22:59.315Z,1.60
2023-02-27T09:25:26.920Z,1.90
2023-02-27T09:27:54.042Z,1.33
2023-02-27T09:30:20.840Z,1.40
2023-02-27T09:32:47.575Z,1.70
2023-02-27T09:35:15.831Z,1.63
2023-02-27T09:37:45.030Z,1.37
2023-02-27T09:40:21.010Z,1.60
2023-02-27T09:42:48.601Z,1.60
2023-02-27T09:45:26.356Z,1.40
2023-02-27T09:48:12.316Z,1.37
2023-02-27T09:50:39.186Z,1.40
2023-02-27T09:53:12.036Z,1.13
2023-02-27T09:55:41.471Z,1.20
2023-02-27T09:58:36.065Z,1.40
2023-02-27T10:01:33.202Z,1.30
2023-02-27T10:04:10.078Z,1.50
2023-02-27T10:06:51.184Z,1.17
2023-02-27T10:09:44.241Z,1.20
2023-02-27T10:12:25.588Z,1.70
2023-02-27T10:15:02.808Z,1.27
2023-02-27T10:17:34.839Z,1.40
2023-02-27T10:20:06.657Z,1.23
2023-02-27T10:22:42.038Z,1.50
2023-02-27T10:25:30.179Z,1.30
2023-02-27T10:28:08.774Z,1.30
2023-02-27T10:30:35.725Z,1.30
2023-02-27T10:33:22.511Z,1.30
2023-02-27T10:35:51.989Z,1.00
2023-02-27T10:38:29.297Z,1.30
2023-02-27T10:40:58.378Z,1.00
2023-02-27T10:43:25.341Z,1.10
2023-02-27T10:45:53.225Z,1.20
2023-02-27T10:48:22.614Z,1.20
2023-02-27T10:50:53.572Z,1.30
2023-02-27T10:53:26.273Z,1.00
2023-02-27T10:56:07.124Z,1.00
2023-02-27T10:58:38.236Z,1.00
2023-02-27T11:01:07.710Z,1.03
2023-02-27T11:03:41.517Z,1.20
2023-02-27T11:06:27.656Z,1.20
2023-02-27T11:09:11.136Z,1.10
2023-02-27T11:11:38.059Z,1.17
2023-02-27T11:14:30.492Z,1.07
2023-02-27T11:16:59.792Z,1.40
2023-02-27T11:19:30.936Z,1.40
2023-02-27T11:22:06.163Z,0.93
2023-02-27T11:24:33.965Z,1.07
2023-02-27T11:27:05.075Z,1.30
2023-02-27T11:29:33.628Z,1.10
2023-02-27T11:32:11.471Z,0.83
2023-02-27T11:34:50.116Z,0.87
2023-02-27T11:37:22.854Z,1.10
2023-02-27T11:39:52.971Z,1.40
2023-02-27T11:42:30.996Z,1.20
2023-02-27T11:45:02.529Z,1.00
2023-02-27T11:47:39.452Z,1.57
2023-02-27T11:50:34.809Z,1.37
2023-02-27T11:53:14.300Z,0.70
2023-02-27T11:55:41.508Z,1.30
2023-02-27T11:58:16.543Z,1.20
2023-02-27T12:00:51.949Z,1.20
2023-02-27T12:03:27.756Z,1.10
2023-02-27T12:05:58.305Z,0.90
2023-02-27T12:08:37.933Z,1.30
2023-02-27T12:11:14.336Z,1.30
2023-02-27T12:13:45.606Z,1.20
2023-02-27T12:16:32.757Z,1.00
2023-02-27T12:19:11.981Z,1.10
2023-02-27T12:21:43.714Z,1.00
2023-02-27T12:24:40.460Z,1.10
2023-02-27T12:27:18.691Z,1.10
2023-02-27T12:29:53.530Z,1.03
2023-02-27T12:32:42.761Z,0.90
2023-02-27T12:35:29.912Z,0.77
2023-02-27T12:37:58.321Z,1.43
2023-02-27T12:40:29.848Z,1.23
2023-02-27T12:43:11.392Z,1.30
2023-02-27T12:45:56.394Z,0.90
2023-02-27T12:48:37.857Z,1.00
2023-02-27T12:51:04.478Z,1.20
2023-02-27T12:53:50.319Z,1.13
2023-02-27T12:56:20.512Z,1.20
2023-02-27T12:59:23.777Z,0.97
2023-02-27T13:02:20.866Z,1.00
2023-02-27T13:04:57.280Z,1.30
2023-02-27T13:07:45.288Z,1.07
2023-02-27T13:10:47.939Z,1.10
2023-02-27T13:13:24.230Z,1.53
2023-02-27T13:16:12.047Z,1.13
2023-02-27T13:18:38.722Z,1.10
2023-02-27T13:21:12.821Z,1.23
2023-02-27T13:24:03.866Z,1.17
2023-02-27T13:26:41.257Z,1.20
2023-02-27T13:29:16.096Z,1.50
2023-02-27T13:31:54.638Z,1.23
2023-02-27T13:34:52.333Z,1.30
2023-02-27T13:37:19.157Z,1.50
2023-02-27T13:39:46.624Z,1.37
2023-02-27T13:42:30.069Z,1.10
2023-02-27T13:45:02.631Z,1.10
2023-02-27T13:47:29.228Z,1.30
2023-02-27T13:50:23.026Z,1.00
2023-02-27T13:52:50.250Z,0.97
2023-02-27T13:55:27.891Z,1.37
2023-02-27T13:57:59.815Z,1.10
2023-02-27T14:00:29.620Z,1.17
2023-02-27T14:03:03.220Z,1.00
2023-02-27T14:05:39.048Z,0.80
2023-02-27T14:08:23.207Z,0.70
2023-02-27T14:11:01.148Z,1.23
2023-02-27T14:13:50.708Z,0.90
2023-02-27T14:16:39.783Z,0.80
2023-02-27T14:19:27.615Z,1.00
2023-02-27T14:22:24.413Z,1.20
2023-02-27T14:25:03.595Z,1.20
2023-02-27T14:27:52.160Z,0.90
2023-02-27T14:30:40.703Z,1.07
2023-02-27T14:33:24.017Z,1.20
2023-02-27T14:36:01.852Z,1.30
2023-02-27T14:38:29.404Z,0.97
2023-02-27T14:41:14.719Z,1.00
2023-02-27T14:43:45.857Z,1.10
2023-02-27T14:46:31.079Z,1.17
2023-02-27T14:49:00.661Z,1.10
2023-02-27T14:51:30.653Z,1.10
2023-02-27T14:54:12.699Z,1.13
2023-02-27T14:56:39.936Z,0.90
2023-02-27T14:59:24.132Z,0.97
2023-02-27T15:01:51.903Z,1.13
2023-02-27T15:04:20.434Z,1.07
2023-02-27T15:06:51.632Z,1.30
2023-02-27T15:09:32.626Z,1.47
2023-02-27T15:12:03.963Z,1.53
2023-02-27T15:14:36.278Z,1.30
2023-02-27T15:17:04.824Z,1.00
2023-02-27T15:19:32.159Z,1.10
2023-02-27T15:22:16.921Z,1.30
2023-02-27T15:24:50.337Z,1.40
2023-02-27T15:27:20.963Z,1.10
2023-02-27T15:29:56.542Z,1.27
2023-02-27T15:32:32.481Z,1.33
2023-02-27T15:35:02.233Z,1.60
2023-02-27T15:37:33.842Z,1.40
2023-02-27T15:40:01.462Z,1.60
2023-02-27T15:42:31.820Z,1.60
2023-02-27T15:44:58.896Z,1.47
2023-02-27T15:47:33.078Z,1.50
2023-02-27T15:50:12.246Z,1.40
2023-02-27T15:53:02.162Z,1.47
2023-02-27T15:55:32.585Z,1.60
2023-02-27T15:58:03.380Z,1.73
2023-02-27T16:00:31.843Z,1.20
2023-02-27T16:02:59.893Z,1.30
2023-02-27T16:05:38.287Z,1.40
2023-02-27T16:08:06.767Z,1.37
2023-02-27T16:10:42.155Z,1.50
2023-02-27T16:13:27.757Z,1.30
2023-02-27T16:16:02.172Z,1.50
2023-02-27T16:18:52.651Z,1.40
2023-02-27T16:21:28.031Z,1.37
2023-02-27T16:23:55.160Z,1.50
2023-02-27T16:26:32.441Z,1.70
2023-02-27T16:29:04.744Z,1.57
2023-02-27T16:31:40.555Z,1.80
2023-02-27T16:34:15.281Z,1.47
2023-02-27T16:36:52.281Z,1.30
2023-02-27T16:39:18.966Z,1.70
2023-02-27T16:41:45.586Z,1.63
2023-02-27T16:44:12.445Z,1.90
2023-02-27T16:46:39.142Z,1.67
2023-02-27T16:49:19.097Z,1.67
2023-02-27T16:51:48.150Z,1.70
2023-02-27T16:54:18.005Z,1.50
2023-02-27T16:56:46.508Z,1.70
2023-02-27T16:59:28.677Z,1.83
2023-02-27T17:01:59.777Z,1.53
2023-02-27T17:04:29.088Z,2.00
2023-02-27T17:06:57.940Z,2.00
2023-02-27T17:09:27.206Z,1.80
2023-02-27T17:11:54.908Z,1.77
2023-02-27T17:14:22.127Z,2.20
2023-02-27T17:16:48.909Z,2.10
2023-02-27T17:19:16.132Z,2.00
2023-02-27T17:21:43.214Z,1.87
2023-02-27T17:24:12.980Z,1.70
2023-02-27T17:26:39.711Z,1.93
2023-02-27T17:29:06.462Z,1.90
2023-02-27T17:31:33.303Z,2.03
2023-02-27T17:33:59.991Z,2.00
2023-02-27T17:36:27.116Z,2.20
2023-02-27T17:39:00.436Z,2.40
2023-02-27T17:41:27.241Z,2.40
2023-02-27T17:43:55.958Z,2.40
2023-02-27T17:46:27.186Z,2.60
2023-02-27T17:48:56.158Z,2.33
2023-02-27T17:51:22.820Z,2.13
2023-02-27T17:53:49.491Z,2.30
2023-02-27T17:56:16.194Z,2.03
2023-02-27T17:58:45.386Z,2.17
2023-02-27T18:01:16.962Z,1.80
2023-02-27T18:03:46.619Z,2.00
2023-02-27T18:06:13.441Z,2.17
2023-02-27T18:08:40.165Z,2.10
2023-02-27T18:11:11.700Z,2.47
2023-02-27T18:13:39.581Z,2.43
2023-02-27T18:16:06.707Z,2.17
2023-02-27T18:18:38.490Z,2.70
2023-02-27T18:21:09.720Z,2.43
2023-02-27T18:23:37.359Z,2.90
2023-02-27T18:26:04.606Z,2.53
2023-02-27T18:28:31.250Z,2.40
2023-02-27T18:30:58.321Z,2.23
2023-02-27T18:33:25.669Z,2.50
2023-02-27T18:35:52.376Z,2.80
2023-02-27T18:38:19.078Z,2.97
2023-02-27T18:40:45.931Z,2.70
2023-02-27T18:43:13.947Z,2.80
2023-02-27T18:45:41.259Z,2.30
2023-02-27T18:48:08.494Z,2.50
2023-02-27T18:50:35.595Z,2.63
2023-02-27T18:53:02.372Z,3.00
2023-02-27T18:55:29.025Z,2.57
2023-02-27T18:57:55.748Z,2.53
2023-02-27T19:00:24.085Z,3.13
2023-02-27T19:02:51.191Z,2.57
2023-02-27T19:05:18.042Z,2.80
2023-02-27T19:07:44.776Z,2.87
2023-02-27T19:10:11.702Z,3.33
2023-02-27T19:12:38.434Z,3.03
2023-02-27T19:15:05.682Z,2.83
2023-02-27T19:17:33.435Z,2.97
2023-02-27T19:20:00.141Z,2.60
2023-02-27T19:22:30.729Z,2.90
2023-02-27T19:24:57.493Z,3.90
2023-02-27T19:27:24.411Z,3.40
2023-02-27T19:29:51.404Z,3.00
2023-02-27T19:32:18.557Z,3.53
2023-02-27T19:34:45.342Z,3.00
2023-02-27T19:37:12.314Z,3.10
2023-02-27T19:39:39.008Z,3.17
2023-02-27T19:42:05.870Z,3.13
2023-02-27T19:44:32.705Z,3.07
2023-02-27T19:47:00.258Z,2.90
2023-02-27T19:49:27.040Z,3.57
2023-02-27T19:51:53.752Z,3.03
2023-02-27T19:54:20.479Z,2.90
2023-02-27T19:56:47.333Z,3.10
2023-02-27T19:59:21.842Z,3.07
2023-02-27T20:01:48.626Z,2.93
2023-02-27T20:04:17.573Z,3.00
2023-02-27T20:06:47.526Z,3.33
2023-02-27T20:09:17.639Z,3.37
2023-02-27T20:11:45.666Z,3.07
2023-02-27T20:14:13.998Z,3.03
2023-02-27T20:16:41.598Z,3.07
2023-02-27T20:19:11.347Z,3.17
2023-02-27T20:21:38.013Z,2.97
2023-02-27T20:24:05.035Z,2.90
2023-02-27T20:26:41.201Z,3.03
2023-02-27T20:29:17.575Z,2.90
2023-02-27T20:31:46.531Z,3.00
2023-02-27T20:34:15.824Z,3.50
2023-02-27T20:36:43.582Z,3.10
2023-02-27T20:39:11.831Z,3.00
2023-02-27T20:41:40.170Z,2.90
2023-02-27T20:44:08.815Z,2.50
2023-02-27T20:46:36.341Z,2.60
2023-02-27T20:49:04.636Z,2.63
2023-02-27T20:51:37.560Z,2.50
2023-02-27T20:54:06.730Z,2.57
2023-02-27T20:56:35.713Z,2.37
2023-02-27T20:59:07.697Z,2.70
2023-02-27T21:01:36.641Z,2.20
2023-02-27T21:04:04.756Z,2.40
2023-02-27T21:06:32.103Z,2.33
2023-02-27T21:09:05.552Z,2.67
2023-02-27T21:11:33.269Z,2.53
2023-02-27T21:14:04.866Z,2.37
2023-02-27T21:16:32.155Z,3.00
2023-02-27T21:18:58.890Z,2.90
2023-02-27T21:21:30.367Z,3.00
2023-02-27T21:23:58.306Z,3.00
2023-02-27T21:26:31.924Z,3.47
2023-02-27T21:29:21.812Z,3.70
2023-02-27T21:31:49.795Z,3.20
2023-02-27T21:34:20.730Z,3.37
2023-02-27T21:36:48.395Z,3.00
2023-02-27T21:39:21.524Z,3.00
2023-02-27T21:41:49.333Z,3.10
2023-02-27T21:44:19.701Z,3.07
2023-02-27T21:46:46.776Z,3.13
2023-02-27T21:49:18.872Z,3.10
2023-02-27T21:51:46.722Z,3.00
2023-02-27T21:54:15.415Z,2.77
2023-02-27T21:56:43.514Z,3.00
2023-02-27T21:59:10.847Z,2.80
2023-02-27T22:01:38.678Z,3.07
2023-02-27T22:04:05.917Z,3.00
2023-02-27T22:06:34.022Z,2.50
2023-02-27T22:09:04.992Z,2.80
2023-02-27T22:11:34.216Z,2.83
2023-02-27T22:14:01.649Z,2.80
2023-02-27T22:16:28.457Z,2.83
2023-02-27T22:18:55.179Z,2.73
2023-02-27T22:21:24.108Z,2.63
2023-02-27T22:23:52.121Z,2.90
2023-02-27T22:26:25.014Z,2.90
2023-02-27T22:28:53.253Z,2.80
2023-02-27T22:31:24.056Z,3.13
2023-02-27T22:33:56.225Z,3.10
2023-02-27T22:36:26.127Z,2.80
2023-02-27T22:38:53.308Z,2.83
2023-02-27T22:41:25.931Z,2.77
2023-02-27T22:43:53.190Z,2.67
2023-02-27T22:46:29.458Z,3.03
2023-02-27T22:49:02.822Z,2.60
2023-02-27T22:51:30.490Z,2.50
2023-02-27T22:54:00.081Z,3.07
2023-02-27T22:56:26.986Z,2.87
2023-02-27T22:58:54.378Z,3.10
2023-02-27T23:01:26.995Z,2.70
2023-02-27T23:03:56.537Z,2.83
2023-02-27T23:06:27.564Z,3.10
2023-02-27T23:08:54.640Z,2.33
2023-02-27T23:11:21.716Z,2.60
2023-02-27T23:13:51.462Z,2.60
2023-02-27T23:16:18.607Z,2.70
2023-02-27T23:18:50.652Z,2.80
2023-02-27T23:21:20.604Z,2.50
2023-02-27T23:23:47.774Z,2.50
2023-02-27T23:26:14.528Z,2.33
2023-02-27T23:28:41.614Z,2.40
2023-02-27T23:31:09.300Z,2.70
2023-02-27T23:33:36.349Z,2.30
2023-02-27T23:36:03.976Z,2.63
2023-02-27T23:38:30.702Z,2.60
2023-02-27T23:40:57.483Z,2.67
2023-02-27T23:43:24.497Z,2.70
2023-02-27T23:45:53.524Z,2.20
2023-02-27T23:48:23.223Z,2.53
2023-02-27T23:50:52.920Z,2.43
2023-02-27T23:53:19.618Z,2.50
2023-02-27T23:55:46.390Z,2.60
2023-02-27T23:58:13.193Z,2.60
